KILM/ILM METAR and TAF weather

Enter ICAO airport designator
Station Type Date Time Source
KILM METAR 2020/12/05 06:08 UTC NOAA

KILM 050608Z 22019G25KT 6SM -RA BR BKN014 BKN021 OVC031 18/16 A2977 RMK AO2 P0000 T01780156


Station Type Date Time Source
KILM Decoded METAR 2020/12/05 06:08 UTC NOAA

WILMINGTON INT'L AIRPORT, NC, United States (KILM) 34-16N 077-54W 9M
Dec 05, 2020 - 01:08 AM EST / 2020.12.05 0608 UTC
Wind: from the SW (220 degrees) at 22 MPH (19 KT) gusting to 29 MPH (25 KT):0
Visibility: 6 mile(s):0
Sky conditions: overcast
Weather: light rain; mist
Precipitation last hour: A trace
Temperature: 64.0 F (17.8 C)
Dew Point: 60.1 F (15.6 C)
Relative Humidity: 86%
Pressure (altimeter): 29.77 in. Hg (1008 hPa)
ob: KILM 050608Z 22019G25KT 6SM -RA BR BKN014 BKN021 OVC031 18/16 A2977 RMK AO2 P0000 T01780156
cycle: 6

Station Type Date Time Source
KILM TAF 2020/12/05 06:27 UTC NOAA

TAF KILM 050525Z 0506/0606 20013G20KT P6SM VCSH BKN025 BKN060 WS020/22045KT
FM050700 22017G25KT P6SM VCSH BKN035 WS020/27040KT
FM050800 25017G23KT P6SM VCSH SCT050
FM051200 29012G19KT P6SM FEW250
FM052100 29011KT P6SM SKC
FM060000 30004KT P6SM SKC

Example: see airport list